Time;durP1;ratioP1;P1;durP2;ratioP2;P2;SDS_P1;SDS_P2;PMS_P1;PMS_P2;Temp;Humidity;BMP_temperature;BMP_pressure;BME280_temperature;BME280_humidity;BME280_pressure;Samples;Min_cycle;Max_cycle;Signal;HPM_P1;HPM_P2
2021/04/06 00:00:46;;;;;;;5.07;1.52;;;4.70;66.70;;;;;;5103418;28;27386;-59
2021/04/06 00:03:30;;;;;;;4.40;1.45;;;4.70;66.90;;;;;;5089519;28;27447;-59
2021/04/06 00:06:15;;;;;;;1.88;1.10;;;4.60;66.90;;;;;;5075035;28;27393;-59
2021/04/06 00:08:59;;;;;;;3.38;1.40;;;4.60;66.80;;;;;;5074817;28;27381;-59
2021/04/06 00:11:45;;;;;;;5.18;1.85;;;4.50;67.10;;;;;;5089403;28;27377;-59
2021/04/06 00:14:30;;;;;;;2.50;1.15;;;4.50;67.20;;;;;;5104196;28;27302;-59
2021/04/06 00:17:15;;;;;;;5.00;1.42;;;4.50;67.60;;;;;;5104357;28;27371;-59
2021/04/06 00:19:59;;;;;;;4.13;1.50;;;4.40;67.50;;;;;;5089060;28;27498;-59
2021/04/06 00:22:45;;;;;;;4.10;1.55;;;4.40;67.10;;;;;;5085727;28;27311;-59
2021/04/06 00:25:31;;;;;;;2.70;1.23;;;4.30;67.40;;;;;;5074794;28;27376;-59
2021/04/06 00:28:19;;;;;;;4.63;1.92;;;4.30;67.50;;;;;;5085986;28;27486;-58
2021/04/06 00:31:04;;;;;;;4.22;1.70;;;4.30;67.00;;;;;;5089012;28;27412;-59
2021/04/06 00:33:49;;;;;;;10.40;4.85;;;4.20;67.60;;;;;;5089206;28;27487;-59
2021/04/06 00:36:33;;;;;;;5.80;2.60;;;4.20;67.10;;;;;;5103871;28;27419;-59
2021/04/06 00:39:27;;;;;;;8.57;4.10;;;4.20;67.20;;;;;;5074451;28;27889;-59
2021/04/06 00:42:19;;;;;;;8.85;3.10;;;4.10;67.30;;;;;;5103768;28;27503;-58
2021/04/06 00:45:06;;;;;;;5.20;2.75;;;4.10;67.40;;;;;;5103729;28;27350;-59
2021/04/06 00:48:04;;;;;;;4.35;2.22;;;4.10;67.60;;;;;;5103213;28;27337;-59
2021/04/06 00:51:11;;;;;;;9.80;4.03;;;4.10;67.20;;;;;;5103666;28;27473;-59
2021/04/06 00:54:08;;;;;;;14.65;8.48;;;4.00;67.00;;;;;;5103588;28;27485;-59
2021/04/06 00:56:57;;;;;;;7.22;4.00;;;4.00;67.30;;;;;;5103740;27;27410;-59
2021/04/06 01:00:08;;;;;;;10.23;3.83;;;3.90;67.30;;;;;;5106823;28;27391;-58
2021/04/06 01:03:07;;;;;;;7.90;3.38;;;3.80;67.20;;;;;;5107309;28;27329;-59
2021/04/06 01:06:01;;;;;;;5.32;3.30;;;3.80;67.60;;;;;;5103606;28;27583;-59
2021/04/06 01:08:45;;;;;;;6.70;3.85;;;3.70;67.20;;;;;;5107282;28;27381;-59
2021/04/06 01:11:30;;;;;;;7.05;4.32;;;3.60;67.40;;;;;;5106955;28;27403;-59
2021/04/06 01:14:17;;;;;;;7.22;5.40;;;3.60;67.60;;;;;;5077628;28;27401;-59
2021/04/06 01:17:06;;;;;;;6.90;5.30;;;3.50;67.30;;;;;;5088424;28;27487;-59
2021/04/06 01:19:50;;;;;;;10.52;4.60;;;3.40;67.60;;;;;;5106684;28;27459;-59
2021/04/06 01:22:36;;;;;;;7.22;4.55;;;3.40;67.90;;;;;;5106396;28;27404;-59
2021/04/06 01:25:22;;;;;;;5.25;3.92;;;3.40;67.90;;;;;;5106608;28;27478;-59
2021/04/06 01:28:08;;;;;;;8.77;4.50;;;3.40;67.80;;;;;;5106558;28;27531;-59
2021/04/06 01:30:53;;;;;;;8.40;4.32;;;3.40;67.60;;;;;;5091550;28;27416;-59
2021/04/06 01:33:37;;;;;;;5.93;3.67;;;3.40;67.70;;;;;;5106914;28;27437;-59
2021/04/06 01:36:25;;;;;;;4.20;3.25;;;3.30;67.60;;;;;;5106446;28;27401;-58
2021/04/06 01:39:15;;;;;;;3.95;2.97;;;3.30;67.50;;;;;;5106434;28;27340;-59
2021/04/06 01:42:05;;;;;;;5.45;3.22;;;3.30;67.60;;;;;;5091493;28;27501;-59
2021/04/06 01:44:51;;;;;;;5.68;3.00;;;3.30;67.50;;;;;;5075714;28;27385;-59
2021/04/06 01:47:36;;;;;;;4.85;3.03;;;3.20;67.40;;;;;;5084408;28;27495;-59
2021/04/06 01:50:20;;;;;;;5.15;2.70;;;3.20;67.20;;;;;;5085861;28;27403;-59
2021/04/06 01:53:05;;;;;;;8.73;2.67;;;3.20;67.50;;;;;;5085109;28;26931;-59
2021/04/06 01:55:57;;;;;;;6.38;2.60;;;3.20;67.60;;;;;;5082058;28;27387;-59
2021/04/06 01:58:47;;;;;;;5.03;2.25;;;3.20;67.10;;;;;;5085801;28;27417;-59
2021/04/06 02:01:33;;;;;;;6.13;2.58;;;3.20;67.40;;;;;;5085343;28;27470;-59
2021/04/06 02:04:21;;;;;;;3.92;2.40;;;3.10;67.20;;;;;;5067396;28;27471;-59
2021/04/06 02:07:08;;;;;;;3.35;2.40;;;3.10;67.20;;;;;;5085806;28;27410;-59
2021/04/06 02:09:52;;;;;;;5.85;2.10;;;3.10;67.30;;;;;;5085509;28;27893;-59
2021/04/06 02:12:42;;;;;;;3.47;2.00;;;3.00;67.20;;;;;;5085654;28;27383;-59
2021/04/06 02:15:27;;;;;;;2.90;2.00;;;3.00;67.30;;;;;;5085766;28;27454;-59
2021/04/06 02:18:18;;;;;;;8.73;2.33;;;3.00;67.10;;;;;;5085512;28;27423;-59
2021/04/06 02:21:06;;;;;;;2.67;1.95;;;3.00;66.90;;;;;;5084406;28;27346;-59
2021/04/06 02:23:51;;;;;;;5.70;2.20;;;3.00;67.10;;;;;;5085620;28;27427;-59
2021/04/06 02:26:35;;;;;;;4.03;2.00;;;3.00;66.80;;;;;;5085440;28;27406;-59
2021/04/06 02:29:20;;;;;;;4.07;1.98;;;3.00;66.90;;;;;;5085572;28;27410;-59
2021/04/06 02:32:07;;;;;;;4.93;2.25;;;2.90;66.90;;;;;;5085307;28;27402;-59
2021/04/06 02:34:54;;;;;;;5.32;2.13;;;3.00;67.40;;;;;;5085089;28;27490;-59
2021/04/06 02:37:41;;;;;;;2.92;1.77;;;2.90;67.10;;;;;;5085325;28;27422;-58
2021/04/06 02:40:26;;;;;;;5.30;2.03;;;2.90;67.00;;;;;;5085004;28;27418;-59
2021/04/06 02:43:11;;;;;;;3.25;2.42;;;2.90;66.80;;;;;;5082127;28;27855;-59
2021/04/06 02:45:56;;;;;;;4.88;2.05;;;2.80;66.90;;;;;;5085372;28;27399;-59
2021/04/06 02:48:40;;;;;;;3.13;1.90;;;2.90;67.10;;;;;;5083889;28;27443;-59
2021/04/06 02:51:24;;;;;;;3.92;1.92;;;2.80;67.00;;;;;;5084991;28;27443;-58
2021/04/06 02:54:09;;;;;;;2.03;1.65;;;2.80;66.80;;;;;;5070233;28;27424;-59
2021/04/06 02:56:53;;;;;;;3.53;2.05;;;2.90;67.70;;;;;;5085103;28;27399;-59
2021/04/06 02:59:39;;;;;;;6.78;2.03;;;2.80;66.60;;;;;;5084752;28;27469;-59
2021/04/06 03:02:23;;;;;;;4.05;1.83;;;2.90;66.60;;;;;;5085112;28;27458;-59
2021/04/06 03:05:08;;;;;;;3.25;1.92;;;2.80;66.80;;;;;;5066687;28;27458;-59
2021/04/06 03:07:53;;;;;;;3.50;2.28;;;2.90;66.80;;;;;;5084639;28;27426;-59
2021/04/06 03:10:37;;;;;;;5.45;2.20;;;2.80;66.60;;;;;;5069414;28;27498;-59
2021/04/06 03:13:23;;;;;;;4.50;1.80;;;2.80;66.60;;;;;;5084684;28;27458;-59
2021/04/06 03:16:09;;;;;;;4.72;2.08;;;2.70;66.60;;;;;;5081410;28;27416;-59
2021/04/06 03:18:53;;;;;;;2.67;2.05;;;2.70;66.60;;;;;;5084463;28;27461;-59
2021/04/06 03:21:38;;;;;;;4.28;1.83;;;2.70;66.70;;;;;;5068550;28;27440;-59
2021/04/06 03:24:22;;;;;;;6.13;2.40;;;2.70;66.90;;;;;;5083633;28;27435;-59
2021/04/06 03:27:07;;;;;;;4.05;1.80;;;2.70;66.80;;;;;;5084658;28;27466;-59
2021/04/06 03:29:52;;;;;;;3.30;2.10;;;2.60;66.70;;;;;;5084646;28;27501;-59
2021/04/06 03:32:38;;;;;;;6.35;2.10;;;2.70;67.00;;;;;;5069421;28;27428;-59
2021/04/06 03:35:22;;;;;;;4.50;1.88;;;2.60;66.90;;;;;;5084276;28;27466;-59
2021/04/06 03:38:10;;;;;;;3.60;2.28;;;2.60;66.90;;;;;;5082607;28;27967;-59
2021/04/06 03:40:54;;;;;;;4.30;2.03;;;2.60;67.10;;;;;;5083974;28;27468;-59
2021/04/06 03:43:40;;;;;;;3.80;2.15;;;2.60;66.90;;;;;;5083484;28;27420;-59
2021/04/06 03:46:25;;;;;;;5.00;2.40;;;2.60;66.70;;;;;;5083927;28;27396;-59
2021/04/06 03:49:17;;;;;;;5.05;2.13;;;2.60;66.80;;;;;;5081048;28;27470;-59
2021/04/06 03:52:11;;;;;;;4.53;2.22;;;2.60;66.90;;;;;;5084277;28;27410;-59
2021/04/06 03:54:55;;;;;;;7.97;2.60;;;2.60;67.10;;;;;;5080764;28;27345;-59
2021/04/06 03:57:52;;;;;;;7.80;2.38;;;2.60;67.00;;;;;;5069308;28;27366;-59
2021/04/06 04:00:37;;;;;;;7.15;2.63;;;2.60;66.90;;;;;;5083273;28;27969;-59
2021/04/06 04:03:21;;;;;;;4.85;2.50;;;2.60;67.00;;;;;;5084123;28;27494;-59
2021/04/06 04:06:06;;;;;;;4.32;2.20;;;2.60;67.50;;;;;;5080670;28;27372;-59
2021/04/06 04:08:53;;;;;;;3.85;1.73;;;2.60;67.50;;;;;;5084152;28;27386;-59
2021/04/06 04:11:39;;;;;;;3.05;2.25;;;2.60;67.40;;;;;;5084013;28;27422;-59
2021/04/06 04:14:24;;;;;;;5.07;2.40;;;2.70;67.80;;;;;;5083999;28;27419;-59
2021/04/06 04:17:10;;;;;;;4.15;2.33;;;2.70;67.90;;;;;;5080080;28;27420;-59
2021/04/06 04:19:57;;;;;;;8.75;2.60;;;2.70;68.20;;;;;;5083698;28;27505;-59
2021/04/06 04:22:42;;;;;;;8.05;2.10;;;2.70;68.30;;;;;;5083868;28;27383;-59
2021/04/06 04:25:26;;;;;;;8.23;2.83;;;2.70;68.60;;;;;;5083132;28;27399;-59
2021/04/06 04:28:11;;;;;;;5.35;2.28;;;2.80;68.90;;;;;;5079680;28;27463;-59
2021/04/06 04:30:58;;;;;;;7.25;3.03;;;2.80;69.10;;;;;;5083884;28;27481;-59
2021/04/06 04:33:43;;;;;;;5.45;2.63;;;2.80;69.60;;;;;;5085100;28;27900;-58
2021/04/06 04:36:27;;;;;;;5.85;2.63;;;2.80;69.60;;;;;;5084105;28;27536;-59
2021/04/06 04:39:12;;;;;;;5.68;2.65;;;2.80;69.90;;;;;;5087215;28;27411;-59
2021/04/06 04:41:56;;;;;;;6.20;2.83;;;2.80;69.70;;;;;;5087021;28;27348;-59
2021/04/06 04:44:41;;;;;;;3.13;2.30;;;2.80;69.70;;;;;;5087339;28;27464;-59
2021/04/06 04:47:25;;;;;;;7.05;2.40;;;2.80;69.60;;;;;;5093403;27;27698;-59
2021/04/06 04:50:10;;;;;;;6.55;2.63;;;2.90;69.90;;;;;;5107355;28;27459;-59
2021/04/06 04:52:55;;;;;;;5.47;2.58;;;2.90;69.90;;;;;;5107514;28;27450;-59
2021/04/06 04:55:39;;;;;;;8.60;2.60;;;2.90;70.00;;;;;;5107195;28;27849;-59
2021/04/06 04:58:23;;;;;;;7.65;2.65;;;2.90;70.10;;;;;;5104122;28;27515;-59
2021/04/06 05:01:08;;;;;;;6.90;2.55;;;3.00;70.60;;;;;;5103642;28;27400;-59
2021/04/06 05:03:52;;;;;;;4.70;2.28;;;3.00;70.60;;;;;;5107368;28;27427;-59
2021/04/06 05:06:37;;;;;;;9.02;2.95;;;3.00;70.70;;;;;;5107237;28;27412;-59
2021/04/06 05:09:21;;;;;;;7.13;2.53;;;3.00;70.90;;;;;;5106958;28;27536;-59
2021/04/06 05:12:06;;;;;;;5.95;2.50;;;3.00;71.40;;;;;;5091790;28;27437;-59
2021/04/06 05:14:51;;;;;;;3.50;2.40;;;3.00;71.40;;;;;;5107224;28;27356;-59
2021/04/06 05:17:36;;;;;;;7.13;3.15;;;3.10;71.60;;;;;;5107041;28;27345;-59
2021/04/06 05:20:21;;;;;;;4.93;3.63;;;3.10;71.30;;;;;;5106960;28;27387;-59
2021/04/06 05:23:05;;;;;;;12.27;5.32;;;3.10;71.70;;;;;;5106825;28;27381;-59
2021/04/06 05:25:49;;;;;;;7.72;3.97;;;3.10;71.90;;;;;;5106411;28;27304;-59
2021/04/06 05:28:34;;;;;;;11.13;3.90;;;3.10;71.70;;;;;;5106966;28;27390;-59
2021/04/06 05:31:19;;;;;;;8.30;3.90;;;3.10;72.30;;;;;;5106615;28;27419;-59
2021/04/06 05:34:03;;;;;;;12.07;3.97;;;3.20;71.90;;;;;;5106892;28;27317;-59
2021/04/06 05:36:48;;;;;;;5.93;3.03;;;3.20;72.10;;;;;;5106894;28;27370;-59
2021/04/06 05:39:33;;;;;;;7.20;3.22;;;3.20;72.10;;;;;;5106745;28;27889;-59
2021/04/06 05:42:17;;;;;;;10.73;3.60;;;3.20;72.00;;;;;;5106749;28;27433;-59
2021/04/06 05:45:03;;;;;;;5.32;2.83;;;3.30;72.40;;;;;;5090664;28;27402;-59
2021/04/06 05:47:51;;;;;;;6.90;2.67;;;3.30;72.40;;;;;;5070682;28;27391;-59
2021/04/06 05:50:36;;;;;;;9.82;3.03;;;3.30;72.30;;;;;;5082903;28;27824;-59
2021/04/06 05:53:21;;;;;;;4.68;2.70;;;3.30;72.60;;;;;;5085731;28;27498;-59
2021/04/06 05:56:06;;;;;;;5.75;3.67;;;3.40;72.70;;;;;;5085887;28;27419;-59
2021/04/06 05:58:55;;;;;;;9.30;4.00;;;3.40;72.60;;;;;;5085023;28;27401;-59
2021/04/06 06:01:41;;;;;;;5.65;3.35;;;3.40;72.30;;;;;;5085647;28;27516;-59
2021/04/06 06:04:25;;;;;;;5.53;3.30;;;3.50;72.40;;;;;;5085661;28;27467;-59
2021/04/06 06:07:12;;;;;;;8.60;3.63;;;3.50;72.80;;;;;;5082728;28;27403;-59
2021/04/06 06:09:56;;;;;;;5.65;2.58;;;3.50;72.30;;;;;;5085844;28;27344;-59
2021/04/06 06:12:41;;;;;;;8.90;3.13;;;3.60;72.00;;;;;;5085067;28;27479;-59
2021/04/06 06:15:25;;;;;;;8.13;2.92;;;3.60;72.20;;;;;;5082193;28;27471;-59
2021/04/06 06:18:10;;;;;;;8.05;2.47;;;3.70;72.30;;;;;;5085504;28;26895;-59
2021/04/06 06:20:54;;;;;;;5.60;2.78;;;3.70;72.20;;;;;;5084804;28;27493;-59
2021/04/06 06:23:39;;;;;;;6.07;2.47;;;3.70;72.50;;;;;;5085385;28;28091;-59
2021/04/06 06:26:23;;;;;;;8.70;2.33;;;3.80;72.40;;;;;;5085676;28;27469;-59
2021/04/06 06:29:12;;;;;;;9.43;3.00;;;3.90;72.20;;;;;;5085648;28;27469;-59
2021/04/06 06:31:59;;;;;;;5.15;2.60;;;3.90;71.90;;;;;;5085308;28;27385;-59
2021/04/06 06:34:43;;;;;;;7.65;3.13;;;4.00;72.30;;;;;;5084847;28;27351;-59
2021/04/06 06:37:28;;;;;;;8.43;2.95;;;4.00;71.80;;;;;;5085196;28;27494;-59
2021/04/06 06:40:13;;;;;;;6.25;3.00;;;4.10;70.90;;;;;;5085436;28;27409;-59
2021/04/06 06:42:58;;;;;;;5.63;2.50;;;4.20;71.80;;;;;;5081184;28;27385;-59
2021/04/06 06:45:42;;;;;;;5.95;3.03;;;4.20;70.10;;;;;;5084281;28;27833;-59
2021/04/06 06:48:33;;;;;;;5.00;3.13;;;4.20;71.70;;;;;;5098136;28;27406;-59
2021/04/06 06:51:18;;;;;;;14.18;3.05;;;4.30;72.20;;;;;;5105515;28;27466;-59
2021/04/06 06:54:04;;;;;;;8.38;2.75;;;4.30;72.30;;;;;;5104742;28;27612;-59
2021/04/06 06:56:48;;;;;;;6.38;2.78;;;4.40;71.40;;;;;;5104217;27;27402;-59
2021/04/06 06:59:43;;;;;;;6.93;2.67;;;4.40;71.90;;;;;;5105242;28;27474;-59
2021/04/06 07:02:28;;;;;;;6.68;2.53;;;4.50;71.70;;;;;;5105316;28;27482;-59
2021/04/06 07:05:27;;;;;;;9.68;3.17;;;4.50;71.40;;;;;;5105178;28;27404;-59
2021/04/06 07:08:11;;;;;;;10.10;3.00;;;4.50;70.30;;;;;;5105082;28;27885;-60
2021/04/06 07:10:56;;;;;;;12.25;2.72;;;4.60;71.00;;;;;;5105099;28;27459;-60
2021/04/06 07:13:40;;;;;;;6.45;2.67;;;4.60;71.60;;;;;;5104537;28;27423;-60
2021/04/06 07:16:25;;;;;;;7.65;2.45;;;4.70;70.90;;;;;;5090091;28;27429;-59
2021/04/06 07:19:09;;;;;;;6.35;2.17;;;4.70;71.40;;;;;;5090122;28;27438;-59
2021/04/06 07:21:56;;;;;;;7.32;2.67;;;4.70;70.90;;;;;;5089427;28;27444;-60
2021/04/06 07:24:41;;;;;;;8.80;2.38;;;4.80;70.20;;;;;;5104936;28;27463;-60
2021/04/06 07:27:26;;;;;;;7.72;2.65;;;4.90;71.40;;;;;;5105185;28;27393;-60
2021/04/06 07:30:11;;;;;;;7.03;3.03;;;4.90;70.80;;;;;;5086272;28;27865;-60
2021/04/06 07:32:57;;;;;;;7.43;3.35;;;5.00;68.80;;;;;;5086604;28;27528;-60
2021/04/06 07:35:43;;;;;;;12.27;2.88;;;5.00;69.90;;;;;;5105087;28;27427;-60
2021/04/06 07:38:27;;;;;;;7.35;3.08;;;5.00;69.60;;;;;;5086331;28;27412;-60
2021/04/06 07:41:17;;;;;;;6.63;3.10;;;5.00;68.90;;;;;;5101521;28;27364;-60
2021/04/06 07:44:03;;;;;;;6.50;2.50;;;5.10;68.90;;;;;;5089749;28;27467;-57
2021/04/06 07:46:48;;;;;;;7.72;3.47;;;5.30;67.10;;;;;;5104743;28;27444;-58
2021/04/06 07:49:38;;;;;;;13.25;3.22;;;5.40;66.90;;;;;;5104750;28;27400;-58
2021/04/06 07:52:22;;;;;;;9.65;3.05;;;5.70;66.80;;;;;;5101479;28;27838;-57
2021/04/06 07:55:08;;;;;;;9.50;2.42;;;5.90;65.00;;;;;;5089719;28;27411;-58
2021/04/06 07:57:52;;;;;;;10.02;3.58;;;5.90;65.70;;;;;;5104478;28;27363;-55
2021/04/06 08:00:50;;;;;;;25.05;8.75;;;6.00;64.20;;;;;;5104608;28;27368;-58
2021/04/06 08:04:06;;;;;;;9.02;4.22;;;6.00;64.30;;;;;;5104261;28;27857;-59
2021/04/06 08:06:57;;;;;;;6.60;3.17;;;5.90;65.30;;;;;;5097761;27;27521;-59
2021/04/06 08:09:45;;;;;;;10.35;3.15;;;5.80;65.70;;;;;;5108013;28;27380;-59
2021/04/06 08:12:33;;;;;;;6.00;2.70;;;5.80;66.00;;;;;;5108298;28;27358;-57
2021/04/06 08:15:19;;;;;;;14.15;5.72;;;5.70;66.10;;;;;;5107895;28;27427;-59
2021/04/06 08:18:04;;;;;;;12.45;4.05;;;5.70;65.90;;;;;;5107916;28;27464;-58
2021/04/06 08:20:51;;;;;;;5.25;2.63;;;5.60;67.30;;;;;;5107657;28;27423;-59
2021/04/06 08:23:42;;;;;;;9.50;3.20;;;5.60;68.10;;;;;;5107665;28;27470;-59
2021/04/06 08:26:31;;;;;;;7.95;3.40;;;5.60;68.30;;;;;;5107607;28;27472;-59
2021/04/06 08:29:42;;;;;;;7.25;3.70;;;5.60;69.20;;;;;;5107769;28;27406;-59
2021/04/06 08:32:26;;;;;;;5.95;2.47;;;5.60;68.10;;;;;;5104554;28;27481;-59
2021/04/06 08:35:11;;;;;;;12.82;3.35;;;5.60;68.60;;;;;;5089397;28;27377;-59
2021/04/06 08:37:56;;;;;;;4.43;2.47;;;5.60;68.30;;;;;;5107690;28;27393;-59
2021/04/06 08:41:03;;;;;;;6.72;2.63;;;5.60;66.70;;;;;;5107541;28;27450;-58
2021/04/06 08:43:55;;;;;;;10.27;2.38;;;5.60;66.70;;;;;;5073453;28;27714;-58
2021/04/06 08:46:46;;;;;;;8.65;2.55;;;5.50;66.10;;;;;;5093286;28;27368;-59
2021/04/06 08:49:31;;;;;;;7.63;2.47;;;5.50;67.20;;;;;;5107798;28;27415;-59
2021/04/06 08:52:16;;;;;;;7.68;2.85;;;5.50;68.20;;;;;;5092180;28;27471;-59
2021/04/06 08:55:08;;;;;;;5.47;2.42;;;5.60;68.80;;;;;;5107633;28;27419;-59
2021/04/06 08:57:59;;;;;;;7.78;2.97;;;5.60;68.00;;;;;;5104007;28;27420;-59
2021/04/06 09:00:44;;;;;;;6.30;3.00;;;5.60;68.40;;;;;;5106709;28;27395;-59
2021/04/06 09:03:29;;;;;;;6.65;2.17;;;5.70;68.50;;;;;;5091975;28;27369;-59
2021/04/06 09:06:13;;;;;;;5.47;2.40;;;5.70;68.30;;;;;;5107475;28;27411;-59
2021/04/06 09:08:57;;;;;;;5.25;2.53;;;5.80;69.00;;;;;;5091940;28;27463;-59
2021/04/06 09:11:42;;;;;;;5.35;2.60;;;5.80;67.80;;;;;;5107292;28;27386;-59
2021/04/06 09:14:29;;;;;;;7.57;2.40;;;5.90;67.30;;;;;;5091937;28;27360;-58
2021/04/06 09:17:13;;;;;;;8.00;2.15;;;5.90;67.60;;;;;;5107001;28;27392;-59
2021/04/06 09:19:58;;;;;;;6.57;2.60;;;5.90;68.00;;;;;;5106188;27;27372;-58
2021/04/06 09:22:46;;;;;;;7.65;4.03;;;5.90;66.60;;;;;;5106886;28;27359;-58
2021/04/06 09:25:30;;;;;;;8.82;3.92;;;5.80;66.40;;;;;;5106831;28;27416;-58
2021/04/06 09:28:15;;;;;;;7.13;3.08;;;5.80;66.40;;;;;;5106389;28;27376;-58
2021/04/06 09:31:00;;;;;;;11.02;2.65;;;5.80;67.10;;;;;;5107004;28;27300;-58
2021/04/06 09:33:44;;;;;;;7.07;2.72;;;5.80;67.60;;;;;;5077480;28;27931;-58
2021/04/06 09:36:29;;;;;;;7.82;2.95;;;5.80;68.10;;;;;;5106916;28;27410;-58
2021/04/06 09:39:13;;;;;;;6.78;2.72;;;5.90;68.20;;;;;;5091888;28;27408;-58
2021/04/06 09:41:58;;;;;;;7.25;2.22;;;6.00;68.50;;;;;;5073770;28;27399;-58
2021/04/06 09:44:44;;;;;;;7.43;2.47;;;6.10;67.80;;;;;;5077448;28;27403;-58
2021/04/06 09:47:29;;;;;;;5.47;2.28;;;6.10;67.30;;;;;;5105990;28;27309;-58
2021/04/06 09:50:14;;;;;;;7.35;3.45;;;6.20;66.90;;;;;;5091496;28;27395;-58
2021/04/06 09:52:59;;;;;;;6.72;2.80;;;6.30;66.60;;;;;;5091306;28;27440;-58
2021/04/06 09:55:47;;;;;;;3.58;2.15;;;6.30;66.70;;;;;;5105870;28;27869;-58
2021/04/06 09:58:33;;;;;;;5.78;2.45;;;6.40;67.10;;;;;;5106303;28;27359;-57
2021/04/06 10:01:23;;;;;;;5.25;2.63;;;6.40;66.50;;;;;;5106106;28;27431;-57
2021/04/06 10:04:08;;;;;;;5.03;2.40;;;6.50;65.20;;;;;;5088072;28;27339;-57
2021/04/06 10:06:53;;;;;;;5.90;2.08;;;6.50;65.40;;;;;;5106370;28;27417;-58
2021/04/06 10:09:48;;;;;;;9.63;2.10;;;6.50;65.50;;;;;;5076927;28;27396;-58
2021/04/06 10:12:33;;;;;;;4.75;1.88;;;6.50;66.10;;;;;;5106046;28;27381;-58
2021/04/06 10:15:19;;;;;;;6.95;2.15;;;6.60;66.60;;;;;;5090870;28;27343;-58
2021/04/06 10:18:12;;;;;;;3.95;2.30;;;6.60;65.70;;;;;;5087636;28;27308;-58
2021/04/06 10:20:56;;;;;;;10.43;2.40;;;6.70;67.00;;;;;;5102381;28;27510;-58
2021/04/06 10:23:41;;;;;;;8.70;2.10;;;6.80;65.40;;;;;;5090472;28;27432;-58
2021/04/06 10:26:25;;;;;;;4.40;2.35;;;6.70;64.80;;;;;;5106029;28;27460;-57
2021/04/06 10:29:10;;;;;;;3.38;1.92;;;6.70;64.20;;;;;;5090513;28;27990;-58
2021/04/06 10:31:59;;;;;;;6.78;2.85;;;6.70;64.80;;;;;;5076045;28;27438;-57
2021/04/06 10:34:55;;;;;;;7.65;2.00;;;6.70;65.80;;;;;;5105400;28;27393;-57
2021/04/06 10:37:39;;;;;;;6.90;3.67;;;6.70;65.40;;;;;;5105321;28;27351;-51
2021/04/06 10:40:26;;;;;;;4.97;2.50;;;6.80;66.50;;;;;;5105377;28;27430;-56
2021/04/06 10:43:15;;;;;;;5.10;2.28;;;7.10;66.90;;;;;;5105592;28;27328;-58
2021/04/06 10:46:07;;;;;;;3.15;1.52;;;7.50;67.00;;;;;;5105186;28;27486;-57
2021/04/06 10:48:58;;;;;;;4.20;1.70;;;7.90;67.30;;;;;;5104275;28;27339;-57
2021/04/06 10:51:48;;;;;;;6.93;2.00;;;8.10;66.10;;;;;;5104744;28;27351;-58
2021/04/06 10:54:33;;;;;;;6.68;1.38;;;8.50;65.40;;;;;;5086797;28;27403;-58
2021/04/06 10:57:26;;;;;;;4.32;1.40;;;9.00;65.00;;;;;;5102143;28;27407;-52
2021/04/06 11:00:18;;;;;;;3.38;1.10;;;9.40;64.50;;;;;;5105261;28;27337;-58
2021/04/06 11:03:14;;;;;;;4.22;1.10;;;9.60;63.30;;;;;;5105418;28;27946;-58
2021/04/06 11:05:59;;;;;;;3.55;1.10;;;9.70;62.50;;;;;;5105255;28;27364;-57
2021/04/06 11:08:45;;;;;;;3.25;1.33;;;9.70;63.00;;;;;;5075997;28;27388;-58
2021/04/06 11:11:32;;;;;;;3.22;1.25;;;9.60;62.40;;;;;;5105140;28;27344;-56
2021/04/06 11:14:18;;;;;;;3.08;1.10;;;9.50;62.20;;;;;;5104855;28;27371;-57
2021/04/06 11:17:06;;;;;;;3.00;1.20;;;9.40;61.10;;;;;;5105021;28;27440;-57
2021/04/06 11:19:54;;;;;;;3.45;1.25;;;9.20;61.40;;;;;;5104408;28;27443;-57
2021/04/06 11:22:39;;;;;;;2.60;1.15;;;9.20;60.80;;;;;;5072582;28;27317;-57
2021/04/06 11:25:23;;;;;;;14.00;2.00;;;9.10;60.40;;;;;;5104752;28;27399;-58
2021/04/06 11:28:08;;;;;;;6.78;1.75;;;8.90;55.50;;;;;;5104653;28;27337;-56
2021/04/06 11:30:52;;;;;;;10.27;1.48;;;8.80;57.90;;;;;;5086459;28;27424;-57
2021/04/06 11:33:36;;;;;;;6.10;1.88;;;8.80;58.70;;;;;;5072059;28;27484;-53
2021/04/06 11:36:21;;;;;;;4.32;1.55;;;8.80;59.20;;;;;;5086202;28;27439;-58
2021/04/06 11:39:07;;;;;;;5.50;1.80;;;9.00;60.20;;;;;;5104880;28;27454;-57
2021/04/06 11:41:52;;;;;;;2.75;1.23;;;9.10;60.40;;;;;;5103877;28;27391;-57
2021/04/06 11:44:37;;;;;;;5.50;1.20;;;9.50;60.40;;;;;;5104723;28;27393;-57
2021/04/06 11:47:22;;;;;;;3.22;1.33;;;9.90;60.80;;;;;;5102929;28;27848;-57
2021/04/06 11:50:07;;;;;;;3.83;1.63;;;10.40;61.80;;;;;;5096623;28;27805;-54
2021/04/06 11:52:52;;;;;;;4.30;2.00;;;10.90;61.80;;;;;;5101599;28;27634;-51
2021/04/06 11:55:40;;;;;;;3.22;1.42;;;11.30;61.80;;;;;;5082024;28;27444;-54
2021/04/06 11:58:34;;;;;;;4.20;1.75;;;11.50;59.90;;;;;;5082390;28;27873;-54
2021/04/06 12:01:20;;;;;;;5.63;1.30;;;11.80;60.50;;;;;;5064529;28;27494;-51
2021/04/06 12:04:05;;;;;;;7.90;1.30;;;11.80;60.20;;;;;;5082041;28;27475;-54
2021/04/06 12:06:56;;;;;;;4.05;1.30;;;12.00;60.70;;;;;;5082250;28;27477;-54
2021/04/06 12:09:50;;;;;;;2.83;1.30;;;12.30;59.50;;;;;;5068700;28;27576;-54
2021/04/06 12:12:35;;;;;;;2.88;1.40;;;12.50;58.70;;;;;;5087135;28;27512;-54
2021/04/06 12:15:19;;;;;;;2.97;1.40;;;12.70;58.20;;;;;;5101971;28;27582;-53
2021/04/06 12:18:04;;;;;;;4.28;1.60;;;12.90;57.80;;;;;;5103697;28;27556;-58
2021/04/06 12:20:48;;;;;;;4.47;1.13;;;13.00;56.80;;;;;;5087938;28;27541;-56
2021/04/06 12:23:33;;;;;;;2.53;1.20;;;13.20;58.10;;;;;;5103512;28;27465;-54
2021/04/06 12:26:17;;;;;;;5.10;1.33;;;13.40;57.80;;;;;;5103860;28;27507;-58
2021/04/06 12:29:02;;;;;;;3.20;1.30;;;13.50;58.00;;;;;;5088589;28;27474;-58
2021/04/06 12:31:47;;;;;;;3.30;1.25;;;13.60;56.50;;;;;;5103671;28;27407;-59
2021/04/06 12:34:31;;;;;;;3.75;1.15;;;13.60;55.40;;;;;;5103749;28;27407;-59
2021/04/06 12:37:16;;;;;;;3.67;1.25;;;13.80;56.10;;;;;;5085292;28;27342;-59
2021/04/06 12:40:00;;;;;;;2.58;1.20;;;13.90;55.80;;;;;;5104016;28;27433;-59
2021/04/06 12:42:45;;;;;;;3.58;1.33;;;13.90;56.00;;;;;;5103016;28;27353;-59
2021/04/06 12:45:30;;;;;;;3.00;1.10;;;14.00;55.20;;;;;;5103576;28;27420;-59
2021/04/06 12:48:14;;;;;;;4.35;1.00;;;14.00;55.10;;;;;;5102883;28;27644;-55
2021/04/06 12:50:59;;;;;;;4.32;1.02;;;14.10;55.30;;;;;;5103485;28;27368;-59
2021/04/06 12:53:43;;;;;;;4.28;1.17;;;14.10;55.30;;;;;;5103580;27;27337;-59
2021/04/06 12:56:28;;;;;;;1.90;0.98;;;14.10;54.70;;;;;;5106737;28;27528;-59
2021/04/06 12:59:12;;;;;;;1.77;0.80;;;14.20;54.10;;;;;;5107128;28;27388;-59
2021/04/06 13:01:57;;;;;;;2.38;1.00;;;14.10;53.60;;;;;;5091540;28;27502;-59
2021/04/06 13:04:41;;;;;;;3.08;0.95;;;14.20;53.30;;;;;;5106867;28;28054;-59
2021/04/06 13:07:25;;;;;;;6.70;1.40;;;14.20;52.90;;;;;;5107105;28;27436;-55
2021/04/06 13:10:11;;;;;;;2.03;1.00;;;14.00;52.00;;;;;;5103911;28;27445;-59
2021/04/06 13:12:56;;;;;;;2.40;1.10;;;13.90;51.70;;;;;;5091909;28;27410;-58
2021/04/06 13:15:40;;;;;;;2.97;1.00;;;13.80;51.80;;;;;;5106663;28;27981;-59
2021/04/06 13:18:25;;;;;;;2.92;1.15;;;13.60;51.00;;;;;;5106712;28;27422;-55
2021/04/06 13:21:10;;;;;;;2.78;1.15;;;13.50;51.30;;;;;;5106512;28;27431;-59
2021/04/06 13:23:54;;;;;;;2.45;1.10;;;13.40;52.20;;;;;;5106837;28;27404;-56
2021/04/06 13:26:39;;;;;;;4.32;1.20;;;13.40;51.20;;;;;;5106820;28;27966;-58
2021/04/06 13:29:23;;;;;;;2.33;1.15;;;13.30;51.20;;;;;;5106719;28;27441;-58
2021/04/06 13:32:07;;;;;;;4.15;1.10;;;13.20;50.90;;;;;;5106772;28;27482;-58
2021/04/06 13:34:52;;;;;;;4.07;1.27;;;13.00;50.10;;;;;;5106267;28;27473;-56
2021/04/06 13:37:37;;;;;;;2.13;0.70;;;12.90;49.70;;;;;;5106271;28;27380;-56
2021/04/06 13:40:22;;;;;;;2.78;1.05;;;12.80;49.00;;;;;;5106047;28;27563;-58
2021/04/06 13:43:06;;;;;;;5.47;1.20;;;12.70;49.20;;;;;;5106567;28;27345;-58
2021/04/06 13:45:52;;;;;;;4.15;1.27;;;12.70;49.00;;;;;;5106231;28;27325;-58
2021/04/06 13:48:36;;;;;;;2.50;1.02;;;12.60;48.70;;;;;;5105748;28;28521;-58
2021/04/06 13:51:21;;;;;;;3.47;1.23;;;12.70;49.80;;;;;;5106154;28;27365;-59
2021/04/06 13:54:07;;;;;;;2.92;1.30;;;12.60;48.70;;;;;;5087948;28;27404;-54
2021/04/06 13:56:51;;;;;;;2.15;0.82;;;12.70;47.80;;;;;;5103331;28;27427;-59
2021/04/06 13:59:35;;;;;;;2.72;1.20;;;12.70;47.60;;;;;;5106329;28;27344;-54
2021/04/06 14:02:20;;;;;;;3.30;1.55;;;12.70;48.40;;;;;;5102692;28;27445;-59
2021/04/06 14:05:06;;;;;;;3.70;1.02;;;12.70;49.10;;;;;;5105538;27;27329;-58
2021/04/06 14:07:51;;;;;;;3.63;1.30;;;12.70;48.80;;;;;;5106107;28;27380;-59
2021/04/06 14:10:36;;;;;;;1.83;0.93;;;12.70;48.00;;;;;;5105961;28;27403;-59
2021/04/06 14:13:21;;;;;;;2.90;1.00;;;12.60;46.60;;;;;;5105731;28;27321;-58
2021/04/06 14:16:06;;;;;;;4.00;1.20;;;12.50;46.10;;;;;;5105594;28;27420;-59
2021/04/06 14:18:50;;;;;;;3.38;1.30;;;12.40;45.70;;;;;;5105616;28;27387;-58
2021/04/06 14:21:35;;;;;;;2.83;1.13;;;12.40;44.40;;;;;;5105445;28;27404;-59
2021/04/06 14:24:19;;;;;;;4.80;1.00;;;12.20;44.70;;;;;;5102396;28;27388;-58
2021/04/06 14:27:04;;;;;;;5.57;1.10;;;12.10;44.30;;;;;;5105864;28;27406;-58
2021/04/06 14:29:49;;;;;;;4.60;1.10;;;11.90;45.00;;;;;;5103586;28;27332;-58
2021/04/06 14:32:33;;;;;;;2.67;1.10;;;11.90;45.80;;;;;;5105698;28;27324;-58
2021/04/06 14:35:18;;;;;;;4.63;1.02;;;11.80;46.50;;;;;;5105930;28;27327;-58